Terminal Aerodrome Forecast
Issued by NWS Twin Cities, MN

Home | Current Version | Previous Version | Graphics & Text | Print | Product List | Glossary On
Versions: 1 2 3 4 5 6 7 8 9 10 11 12 13 14 15 16 17 18 19 20 21 22 23 24 25 26 27 28
000
FTUS43 KMPX 260200 AAA
TAFMSP
TAF AMD
KMSP 260300Z 2603/2706 04005KT 6SM BR SCT015 BKN035
      TEMPO 2606/2610 5SM -SN OVC012
     FM261000 01006KT 6SM -SHSN BR OVC009
     FM261600 35008KT P6SM OVC015=

USA.gov is the U.S. government's official web portal to all federal, state and local government web resources and services.